Time;durP1;ratioP1;P1;durP2;ratioP2;P2;SDS_P1;SDS_P2;PMS_P1;PMS_P2;Temp;Humidity;BMP_temperature;BMP_pressure;BME280_temperature;BME280_humidity;BME280_pressure;Samples;Min_cycle;Max_cycle;Signal;HPM_P1;HPM_P2
2023/01/26 00:00:48;;;;;;;57.90;32.15;;;;;;;;;;4992470;28;20026;-70
2023/01/26 00:03:14;;;;;;;60.83;32.70;;;;;;;;;;4992734;28;20101;-71
2023/01/26 00:05:40;;;;;;;63.03;33.70;;;;;;;;;;4992722;28;20053;-70
2023/01/26 00:08:07;;;;;;;65.90;32.67;;;;;;;;;;4992185;28;20080;-71
2023/01/26 00:10:35;;;;;;;73.32;35.65;;;;;;;;;;4992460;28;20046;-70
2023/01/26 00:13:01;;;;;;;69.80;38.03;;;;;;;;;;4992329;28;20124;-71
2023/01/26 00:15:27;;;;;;;73.47;37.70;;;;;;;;;;4990991;28;20069;-71
2023/01/26 00:17:53;;;;;;;73.78;34.67;;;;;;;;;;4991861;28;20018;-71
2023/01/26 00:20:19;;;;;;;66.13;33.90;;;;;;;;;;4992382;28;20022;-71
2023/01/26 00:22:45;;;;;;;68.75;35.88;;;;;;;;;;5014388;22;20046;-73
2023/01/26 00:25:11;;;;;;;70.57;36.33;;;;;;;;;;4992699;28;20057;-73
2023/01/26 00:27:37;;;;;;;72.40;35.50;;;;;;;;;;4990621;28;20128;-73
2023/01/26 00:30:03;;;;;;;71.68;37.47;;;;;;;;;;4992488;28;20026;-73
2023/01/26 00:32:29;;;;;;;68.30;36.25;;;;;;;;;;4992172;28;20054;-73
2023/01/26 00:34:55;;;;;;;72.55;36.38;;;;;;;;;;4992429;28;20086;-74
2023/01/26 00:37:21;;;;;;;73.15;37.42;;;;;;;;;;4991986;28;20477;-72
2023/01/26 00:39:47;;;;;;;71.97;35.88;;;;;;;;;;4992417;28;20033;-74
2023/01/26 00:42:14;;;;;;;72.07;36.00;;;;;;;;;;4992175;28;20509;-73
2023/01/26 00:44:41;;;;;;;69.78;36.95;;;;;;;;;;4992224;28;20026;-73
2023/01/26 00:47:08;;;;;;;69.35;34.15;;;;;;;;;;4992169;28;20026;-72
2023/01/26 00:49:34;;;;;;;68.97;36.88;;;;;;;;;;4991098;28;20026;-73
2023/01/26 00:52:00;;;;;;;68.53;34.55;;;;;;;;;;4992271;28;20038;-74
2023/01/26 00:54:27;;;;;;;68.60;34.90;;;;;;;;;;4992269;28;20488;-70
2023/01/26 00:56:53;;;;;;;67.68;32.42;;;;;;;;;;4991943;28;20085;-74
2023/01/26 00:59:19;;;;;;;72.40;35.10;;;;;;;;;;4991776;28;20022;-74
2023/01/26 01:01:45;;;;;;;65.22;34.08;;;;;;;;;;4991904;28;20076;-73
2023/01/26 01:04:11;;;;;;;67.53;34.15;;;;;;;;;;4991828;28;20034;-74
2023/01/26 01:06:37;;;;;;;74.57;33.05;;;;;;;;;;4991868;28;20022;-73
2023/01/26 01:09:03;;;;;;;62.00;32.20;;;;;;;;;;4991674;28;20037;-73
2023/01/26 01:11:29;;;;;;;67.18;33.97;;;;;;;;;;4991587;28;20689;-73
2023/01/26 01:13:55;;;;;;;71.22;34.72;;;;;;;;;;4992198;28;20045;-73
2023/01/26 01:16:22;;;;;;;68.78;31.63;;;;;;;;;;4991821;28;20388;-73
2023/01/26 01:18:48;;;;;;;58.92;29.17;;;;;;;;;;4991574;28;20022;-72
2023/01/26 01:21:15;;;;;;;52.53;27.70;;;;;;;;;;4991605;28;20026;-73
2023/01/26 01:23:41;;;;;;;57.88;28.75;;;;;;;;;;4990378;28;20532;-73
2023/01/26 01:26:08;;;;;;;57.67;28.83;;;;;;;;;;4991691;28;20495;-72
2023/01/26 01:28:34;;;;;;;56.55;29.15;;;;;;;;;;4991478;28;20030;-73
2023/01/26 01:31:03;;;;;;;62.33;30.17;;;;;;;;;;4992610;28;20024;-73
2023/01/26 01:33:29;;;;;;;63.72;30.27;;;;;;;;;;4995222;28;20031;-73
2023/01/26 01:35:59;;;;;;;63.65;31.70;;;;;;;;;;4995436;28;20022;-73
2023/01/26 01:38:26;;;;;;;63.55;29.88;;;;;;;;;;4994837;28;20029;-73
2023/01/26 01:40:52;;;;;;;58.97;28.42;;;;;;;;;;4995473;28;20076;-73
2023/01/26 01:43:18;;;;;;;66.72;32.42;;;;;;;;;;4995574;28;20062;-73
2023/01/26 01:45:46;;;;;;;64.80;31.05;;;;;;;;;;4995501;28;20539;-73
2023/01/26 01:48:32;;;;;;;65.57;30.45;;;;;;;;;;4994850;28;20449;-73
2023/01/26 01:50:59;;;;;;;58.15;28.63;;;;;;;;;;4984609;28;20042;-72
2023/01/26 01:53:32;;;;;;;67.68;30.40;;;;;;;;;;4993687;28;20492;-72
2023/01/26 01:55:59;;;;;;;60.75;30.85;;;;;;;;;;4994986;28;20408;-73
2023/01/26 01:58:26;;;;;;;63.97;30.98;;;;;;;;;;4994862;28;20050;-73
2023/01/26 02:00:53;;;;;;;68.97;31.58;;;;;;;;;;4995026;28;20026;-73
2023/01/26 02:03:20;;;;;;;64.97;31.63;;;;;;;;;;4994796;28;20030;-72
2023/01/26 02:05:55;;;;;;;68.47;33.13;;;;;;;;;;4994982;28;20396;-73
2023/01/26 02:08:23;;;;;;;65.22;30.75;;;;;;;;;;4994559;28;20476;-73
2023/01/26 02:10:52;;;;;;;63.03;32.28;;;;;;;;;;4994671;28;20034;-72
2023/01/26 02:13:18;;;;;;;70.45;33.15;;;;;;;;;;4992750;28;20493;-73
2023/01/26 02:15:45;;;;;;;71.93;33.00;;;;;;;;;;4992850;28;20431;-72
2023/01/26 02:18:11;;;;;;;70.40;32.40;;;;;;;;;;4993235;28;20397;-73
2023/01/26 02:20:45;;;;;;;70.57;31.42;;;;;;;;;;4992725;28;20025;-73
2023/01/26 02:23:31;;;;;;;69.30;33.15;;;;;;;;;;4980534;28;20503;-73
2023/01/26 02:25:57;;;;;;;70.63;32.92;;;;;;;;;;4974854;28;20130;-73
2023/01/26 02:28:27;;;;;;;65.18;32.53;;;;;;;;;;4974657;28;20035;-72
2023/01/26 02:30:54;;;;;;;65.10;31.52;;;;;;;;;;4975014;28;20037;-71
2023/01/26 02:33:21;;;;;;;73.47;36.83;;;;;;;;;;4974366;28;20026;-71
2023/01/26 02:35:47;;;;;;;69.70;33.88;;;;;;;;;;4974549;28;20449;-73
2023/01/26 02:38:13;;;;;;;69.38;32.25;;;;;;;;;;4973732;28;20062;-72
2023/01/26 02:40:42;;;;;;;78.25;33.78;;;;;;;;;;4974636;28;20054;-72
2023/01/26 02:43:09;;;;;;;73.50;35.40;;;;;;;;;;4974289;28;20026;-72
2023/01/26 02:45:35;;;;;;;83.47;36.97;;;;;;;;;;4974634;28;20031;-72
2023/01/26 02:48:05;;;;;;;85.38;38.38;;;;;;;;;;4974565;28;20058;-72
2023/01/26 02:50:31;;;;;;;89.32;39.08;;;;;;;;;;4974252;28;20034;-72
2023/01/26 02:52:58;;;;;;;93.45;39.13;;;;;;;;;;4974409;28;20678;-72
2023/01/26 02:55:25;;;;;;;92.05;39.97;;;;;;;;;;4981229;28;20041;-72
2023/01/26 02:58:01;;;;;;;105.20;41.38;;;;;;;;;;4993498;28;20019;-72
2023/01/26 03:00:37;;;;;;;91.35;38.80;;;;;;;;;;4994306;28;20096;-73
2023/01/26 03:03:06;;;;;;;93.10;38.03;;;;;;;;;;4994939;28;20121;-72
2023/01/26 03:05:32;;;;;;;85.90;36.65;;;;;;;;;;4995535;28;20030;-73
2023/01/26 03:07:58;;;;;;;95.43;37.20;;;;;;;;;;4995256;28;20061;-72
2023/01/26 03:10:25;;;;;;;87.50;36.15;;;;;;;;;;4995709;28;20030;-72
2023/01/26 03:12:52;;;;;;;84.30;35.58;;;;;;;;;;4996120;28;20022;-73
2023/01/26 03:29:03;;;;;;;84.63;33.15;;;;;;;;;;4993911;28;20045;-73
2023/01/26 03:31:29;;;;;;;72.43;31.80;;;;;;;;;;4993897;28;20030;-72
2023/01/26 03:33:55;;;;;;;85.78;32.55;;;;;;;;;;4994109;28;20054;-73
2023/01/26 03:36:21;;;;;;;81.75;33.83;;;;;;;;;;4992546;28;20117;-73
2023/01/26 03:38:47;;;;;;;88.97;35.33;;;;;;;;;;4993933;28;20027;-73
2023/01/26 03:57:40;;;;;;;82.18;32.22;;;;;;;;;;4992788;28;20033;-74
2023/01/26 04:00:07;;;;;;;82.60;32.15;;;;;;;;;;4993170;28;20022;-74
2023/01/26 04:11:07;;;;;;;85.80;30.60;;;;;;;;;;4990128;28;20037;-73
2023/01/26 04:21:47;;;;;;;71.00;28.35;;;;;;;;;;4990318;28;20137;-73
2023/01/26 04:24:13;;;;;;;76.95;30.83;;;;;;;;;;4990051;28;20030;-73
2023/01/26 04:26:39;;;;;;;77.78;29.13;;;;;;;;;;4990048;28;20045;-73
2023/01/26 04:29:07;;;;;;;78.13;31.52;;;;;;;;;;4991083;28;20455;-73
2023/01/26 04:31:33;;;;;;;78.32;31.83;;;;;;;;;;4992237;28;20510;-73
2023/01/26 04:34:00;;;;;;;82.32;31.17;;;;;;;;;;4992554;28;20109;-73
2023/01/26 04:36:26;;;;;;;82.55;31.33;;;;;;;;;;4992199;28;20045;-74
2023/01/26 04:38:52;;;;;;;90.07;31.63;;;;;;;;;;4991871;28;20077;-73
2023/01/26 04:41:18;;;;;;;78.60;29.35;;;;;;;;;;4992131;28;20477;-73
2023/01/26 04:43:44;;;;;;;75.57;27.27;;;;;;;;;;4992281;28;20015;-74
2023/01/26 04:46:10;;;;;;;82.90;29.25;;;;;;;;;;4992111;28;20018;-73
2023/01/26 04:48:36;;;;;;;84.32;28.88;;;;;;;;;;4990696;28;20022;-74
2023/01/26 04:51:12;;;;;;;67.43;26.38;;;;;;;;;;4992308;28;20025;-73
2023/01/26 04:53:38;;;;;;;65.82;26.70;;;;;;;;;;4992373;28;20026;-74
2023/01/26 04:56:04;;;;;;;58.40;24.48;;;;;;;;;;4992116;28;20100;-73
2023/01/26 04:58:31;;;;;;;58.65;24.30;;;;;;;;;;4991932;28;20384;-73
2023/01/26 05:00:58;;;;;;;53.22;23.08;;;;;;;;;;4992062;28;20076;-73
2023/01/26 05:03:24;;;;;;;65.85;26.92;;;;;;;;;;4991849;28;20034;-73
2023/01/26 05:05:52;;;;;;;65.03;27.08;;;;;;;;;;4992869;28;20480;-73
2023/01/26 05:08:19;;;;;;;64.00;24.10;;;;;;;;;;4995851;28;20030;-73
2023/01/26 05:10:45;;;;;;;65.90;26.13;;;;;;;;;;4995930;28;20030;-73
2023/01/26 05:13:11;;;;;;;68.13;27.05;;;;;;;;;;4995833;28;20031;-72
2023/01/26 05:15:37;;;;;;;75.32;28.60;;;;;;;;;;4995647;28;20023;-73
2023/01/26 05:18:04;;;;;;;83.82;28.60;;;;;;;;;;4995448;28;20034;-73
2023/01/26 05:20:31;;;;;;;76.03;28.27;;;;;;;;;;4995636;28;20022;-72
2023/01/26 05:22:56;;;;;;;87.30;31.55;;;;;;;;;;4995413;28;20038;-72
2023/01/26 05:25:22;;;;;;;92.28;32.42;;;;;;;;;;4994429;28;20052;-73
2023/01/26 05:27:49;;;;;;;92.75;35.08;;;;;;;;;;4994114;28;20030;-73
2023/01/26 05:30:15;;;;;;;94.45;32.20;;;;;;;;;;4995832;28;20037;-73
2023/01/26 05:32:41;;;;;;;102.03;32.55;;;;;;;;;;4995633;28;20031;-73
2023/01/26 05:35:07;;;;;;;99.43;35.85;;;;;;;;;;4996116;28;20029;-74
2023/01/26 05:37:33;;;;;;;93.55;32.70;;;;;;;;;;4996675;28;20121;-73
2023/01/26 05:39:59;;;;;;;79.07;28.83;;;;;;;;;;4997563;28;20042;-74
2023/01/26 05:42:26;;;;;;;101.60;33.10;;;;;;;;;;4997241;28;20030;-73
2023/01/26 05:44:52;;;;;;;97.38;34.05;;;;;;;;;;4997256;28;20069;-73
2023/01/26 05:47:18;;;;;;;95.28;34.63;;;;;;;;;;4995277;28;20034;-73
2023/01/26 05:49:45;;;;;;;98.53;34.20;;;;;;;;;;4993897;28;20033;-73
2023/01/26 05:52:12;;;;;;;112.30;36.13;;;;;;;;;;4995281;28;20061;-74
2023/01/26 05:54:38;;;;;;;117.57;39.25;;;;;;;;;;4995343;28;20369;-73
2023/01/26 05:57:04;;;;;;;102.90;34.83;;;;;;;;;;4994836;28;20033;-73
2023/01/26 05:59:30;;;;;;;105.88;34.20;;;;;;;;;;4994758;28;20023;-74
2023/01/26 06:01:57;;;;;;;99.10;33.40;;;;;;;;;;4994656;28;20121;-74
2023/01/26 06:04:23;;;;;;;103.38;34.90;;;;;;;;;;4994818;28;20027;-74
2023/01/26 06:06:49;;;;;;;90.38;31.48;;;;;;;;;;4994836;28;20484;-73
2023/01/26 06:09:15;;;;;;;101.97;34.78;;;;;;;;;;4994618;28;20030;-74
2023/01/26 06:11:41;;;;;;;109.63;34.83;;;;;;;;;;4994656;28;20027;-73
2023/01/26 06:14:07;;;;;;;98.05;32.90;;;;;;;;;;4994520;28;20425;-71
2023/01/26 06:16:33;;;;;;;102.07;33.55;;;;;;;;;;4993870;28;20073;-73
2023/01/26 06:18:59;;;;;;;119.50;37.10;;;;;;;;;;4994015;28;20469;-73
2023/01/26 06:21:25;;;;;;;102.93;35.83;;;;;;;;;;4994050;28;20465;-74
2023/01/26 06:23:51;;;;;;;123.40;38.05;;;;;;;;;;5016403;22;20057;-71
2023/01/26 06:26:17;;;;;;;98.55;33.03;;;;;;;;;;4993793;28;20035;-71
2023/01/26 06:28:43;;;;;;;115.50;38.78;;;;;;;;;;4994076;28;20084;-71
2023/01/26 06:31:09;;;;;;;101.30;36.10;;;;;;;;;;4994231;28;20105;-69
2023/01/26 06:33:36;;;;;;;93.07;34.97;;;;;;;;;;4993981;28;20037;-71
2023/01/26 06:36:06;;;;;;;93.95;34.95;;;;;;;;;;4993842;28;20092;-72
2023/01/26 06:38:32;;;;;;;106.38;37.70;;;;;;;;;;4993695;28;20054;-77
2023/01/26 06:41:02;;;;;;;112.80;38.28;;;;;;;;;;4992487;28;20022;-71
2023/01/26 06:43:29;;;;;;;124.40;41.58;;;;;;;;;;4993748;28;20027;-71
2023/01/26 06:45:56;;;;;;;118.55;40.67;;;;;;;;;;4993876;28;20177;-72
2023/01/26 06:48:22;;;;;;;107.55;40.20;;;;;;;;;;4993606;28;20030;-71
2023/01/26 06:50:50;;;;;;;107.15;43.50;;;;;;;;;;4993984;28;20022;-72
2023/01/26 06:53:22;;;;;;;86.88;34.95;;;;;;;;;;4992112;28;20049;-71
2023/01/26 06:55:50;;;;;;;111.80;40.55;;;;;;;;;;4992493;28;20026;-71
2023/01/26 06:58:16;;;;;;;88.00;36.90;;;;;;;;;;4991872;28;20034;-72
2023/01/26 07:00:42;;;;;;;100.47;41.28;;;;;;;;;;4993611;28;20404;-73
2023/01/26 07:03:09;;;;;;;105.93;41.25;;;;;;;;;;4993601;28;20034;-72
2023/01/26 07:05:35;;;;;;;112.25;44.97;;;;;;;;;;4993458;28;20053;-71
2023/01/26 07:08:03;;;;;;;109.70;42.55;;;;;;;;;;4993363;28;20034;-71
2023/01/26 07:10:29;;;;;;;100.07;40.63;;;;;;;;;;4993475;28;20026;-71
2023/01/26 07:12:55;;;;;;;91.47;37.38;;;;;;;;;;4993507;28;20026;-72
2023/01/26 07:15:21;;;;;;;93.78;38.22;;;;;;;;;;4993568;28;20029;-70
2023/01/26 07:17:47;;;;;;;99.80;40.53;;;;;;;;;;4992951;28;20397;-72
2023/01/26 07:20:13;;;;;;;94.90;39.33;;;;;;;;;;4992186;28;20029;-71
2023/01/26 07:22:39;;;;;;;98.07;38.15;;;;;;;;;;4993678;28;20070;-70
2023/01/26 07:25:05;;;;;;;104.45;42.10;;;;;;;;;;4993308;28;20389;-72
2023/01/26 07:27:31;;;;;;;113.78;45.20;;;;;;;;;;4992931;28;20479;-71
2023/01/26 07:29:57;;;;;;;110.30;43.70;;;;;;;;;;4991036;28;20057;-71
2023/01/26 07:32:23;;;;;;;108.93;47.03;;;;;;;;;;4992977;28;20026;-71
2023/01/26 07:34:49;;;;;;;123.95;50.65;;;;;;;;;;4992933;28;20489;-70
2023/01/26 07:37:15;;;;;;;108.25;44.78;;;;;;;;;;4992796;28;20037;-71
2023/01/26 07:39:41;;;;;;;110.60;45.53;;;;;;;;;;4993015;28;20081;-70
2023/01/26 07:42:09;;;;;;;108.35;46.97;;;;;;;;;;4991909;28;20374;-71
2023/01/26 07:44:35;;;;;;;117.40;46.97;;;;;;;;;;4992989;28;20104;-69
2023/01/26 07:47:01;;;;;;;115.60;46.53;;;;;;;;;;4994030;28;20465;-70
2023/01/26 07:49:27;;;;;;;95.70;45.30;;;;;;;;;;4992983;28;20117;-71
2023/01/26 07:51:53;;;;;;;104.38;46.33;;;;;;;;;;4992555;28;20101;-71
2023/01/26 07:54:20;;;;;;;98.68;45.28;;;;;;;;;;4992773;28;20118;-70
2023/01/26 07:56:46;;;;;;;88.20;42.17;;;;;;;;;;4992591;28;20018;-71
2023/01/26 07:59:12;;;;;;;96.15;42.58;;;;;;;;;;4990858;28;20085;-71
2023/01/26 08:01:38;;;;;;;92.07;43.05;;;;;;;;;;4990699;28;20549;-71
2023/01/26 08:04:04;;;;;;;92.70;42.33;;;;;;;;;;4992217;28;20064;-71
2023/01/26 08:06:31;;;;;;;87.93;43.45;;;;;;;;;;4990926;28;20049;-71
2023/01/26 08:08:57;;;;;;;93.03;43.42;;;;;;;;;;4991989;28;20033;-70
2023/01/26 08:11:24;;;;;;;97.07;45.50;;;;;;;;;;4992023;28;20050;-72
2023/01/26 08:13:51;;;;;;;101.13;44.90;;;;;;;;;;4990660;28;20077;-71
2023/01/26 08:16:17;;;;;;;99.68;43.90;;;;;;;;;;4992230;28;20057;-71
2023/01/26 08:18:44;;;;;;;94.00;43.28;;;;;;;;;;4986588;28;20497;-71
2023/01/26 08:21:11;;;;;;;96.35;43.65;;;;;;;;;;4991743;28;20476;-70
2023/01/26 08:23:37;;;;;;;97.38;45.30;;;;;;;;;;4991246;28;20035;-71
2023/01/26 08:26:04;;;;;;;102.43;45.58;;;;;;;;;;4992184;28;20027;-71
2023/01/26 08:28:30;;;;;;;86.53;44.03;;;;;;;;;;4991960;28;20412;-71
2023/01/26 08:30:56;;;;;;;83.80;41.30;;;;;;;;;;4990819;28;20054;-70
2023/01/26 08:33:23;;;;;;;102.80;45.53;;;;;;;;;;4992626;28;20027;-71
2023/01/26 08:35:49;;;;;;;90.93;43.30;;;;;;;;;;4992614;28;20037;-72
2023/01/26 08:38:15;;;;;;;90.43;44.10;;;;;;;;;;4992657;28;20089;-71
2023/01/26 08:40:41;;;;;;;99.78;43.13;;;;;;;;;;4990730;28;20018;-71
2023/01/26 08:43:07;;;;;;;98.30;43.80;;;;;;;;;;4991422;28;20030;-71
2023/01/26 08:45:33;;;;;;;80.38;37.30;;;;;;;;;;4991237;28;20085;-71
2023/01/26 08:47:59;;;;;;;94.63;41.03;;;;;;;;;;4991001;28;20034;-71
2023/01/26 08:50:26;;;;;;;86.93;41.67;;;;;;;;;;4990101;28;20031;-71
2023/01/26 08:52:55;;;;;;;84.07;39.30;;;;;;;;;;4988668;28;20026;-68
2023/01/26 08:55:21;;;;;;;83.22;38.20;;;;;;;;;;4989763;28;20476;-71
2023/01/26 08:57:51;;;;;;;75.18;34.58;;;;;;;;;;4989126;28;20088;-72
2023/01/26 09:00:17;;;;;;;83.85;36.85;;;;;;;;;;4992082;28;20018;-72
2023/01/26 09:02:43;;;;;;;82.35;36.47;;;;;;;;;;4992092;28;20030;-72
2023/01/26 09:05:09;;;;;;;78.03;36.88;;;;;;;;;;4992034;28;20037;-73
2023/01/26 09:07:35;;;;;;;84.72;37.53;;;;;;;;;;4990389;28;20481;-72
2023/01/26 09:10:01;;;;;;;73.70;34.88;;;;;;;;;;4991944;28;20026;-73
2023/01/26 09:12:27;;;;;;;83.53;36.20;;;;;;;;;;4991701;28;20185;-73
2023/01/26 09:14:53;;;;;;;84.93;37.95;;;;;;;;;;4991838;28;20054;-73
2023/01/26 09:17:19;;;;;;;91.88;38.88;;;;;;;;;;4991932;28;20469;-72
2023/01/26 09:19:45;;;;;;;87.45;36.22;;;;;;;;;;4990598;28;20054;-72
2023/01/26 09:22:11;;;;;;;83.88;36.38;;;;;;;;;;4991910;28;20482;-72
2023/01/26 09:24:37;;;;;;;76.78;34.53;;;;;;;;;;4991814;28;20132;-72
2023/01/26 09:27:03;;;;;;;72.20;33.78;;;;;;;;;;4991587;28;20064;-70
2023/01/26 09:29:29;;;;;;;82.18;35.80;;;;;;;;;;4991901;28;20439;-70
2023/01/26 09:31:55;;;;;;;86.35;34.60;;;;;;;;;;4991811;28;20073;-70
2023/01/26 09:34:24;;;;;;;68.55;30.88;;;;;;;;;;4991638;28;20030;-71
2023/01/26 09:36:50;;;;;;;69.05;30.40;;;;;;;;;;4991699;28;20100;-72
2023/01/26 09:39:16;;;;;;;74.97;32.35;;;;;;;;;;4990173;28;20118;-71
2023/01/26 09:41:51;;;;;;;74.07;29.77;;;;;;;;;;4991601;28;20023;-71
2023/01/26 09:44:23;;;;;;;64.60;30.20;;;;;;;;;;4992577;28;20092;-71
2023/01/26 09:47:13;;;;;;;85.72;34.88;;;;;;;;;;4991456;28;20030;-71
2023/01/26 09:49:42;;;;;;;56.43;24.67;;;;;;;;;;4990966;28;20027;-71
2023/01/26 09:52:26;;;;;;;80.82;33.35;;;;;;;;;;4991740;28;20277;-71
2023/01/26 09:54:53;;;;;;;72.78;32.65;;;;;;;;;;4993676;28;20022;-71
2023/01/26 09:57:27;;;;;;;77.65;32.30;;;;;;;;;;4992189;28;20061;-70
2023/01/26 09:59:52;;;;;;;86.45;34.83;;;;;;;;;;4993978;28;20023;-70
2023/01/26 10:02:41;;;;;;;93.43;35.22;;;;;;;;;;4994231;28;20493;-71
2023/01/26 10:05:24;;;;;;;76.07;33.05;;;;;;;;;;4995092;28;20396;-70
2023/01/26 10:07:50;;;;;;;78.38;34.33;;;;;;;;;;4994733;28;20118;-71
2023/01/26 10:10:23;;;;;;;76.70;32.25;;;;;;;;;;4993735;28;20121;-71
2023/01/26 10:12:50;;;;;;;80.20;32.97;;;;;;;;;;4994515;28;20030;-71
2023/01/26 10:15:29;;;;;;;72.60;30.75;;;;;;;;;;4993039;28;20026;-71
2023/01/26 10:17:56;;;;;;;74.47;31.67;;;;;;;;;;4994545;28;20014;-71
2023/01/26 10:20:31;;;;;;;76.40;33.47;;;;;;;;;;4994677;28;20477;-71
2023/01/26 10:23:17;;;;;;;76.00;32.58;;;;;;;;;;4994422;28;20045;-71
2023/01/26 10:25:45;;;;;;;71.70;31.73;;;;;;;;;;4994105;28;20045;-70
2023/01/26 10:28:16;;;;;;;65.15;32.55;;;;;;;;;;4994209;28;20464;-70
2023/01/26 10:30:43;;;;;;;69.38;33.70;;;;;;;;;;4993160;28;20030;-70
2023/01/26 10:33:15;;;;;;;75.53;31.35;;;;;;;;;;4994249;28;20026;-70
2023/01/26 10:35:41;;;;;;;68.63;30.17;;;;;;;;;;4994236;28;20053;-71
2023/01/26 10:38:25;;;;;;;70.40;32.80;;;;;;;;;;4993902;28;20034;-72
2023/01/26 10:40:51;;;;;;;75.82;32.17;;;;;;;;;;4995862;28;20737;-72
2023/01/26 10:43:18;;;;;;;71.97;32.00;;;;;;;;;;4998077;28;20034;-72
2023/01/26 10:45:45;;;;;;;70.93;30.88;;;;;;;;;;4997718;28;20034;-72
2023/01/26 10:48:25;;;;;;;69.07;28.60;;;;;;;;;;4996167;28;20030;-71
2023/01/26 10:50:52;;;;;;;44.70;21.92;;;;;;;;;;4997742;28;20031;-72
2023/01/26 10:53:28;;;;;;;63.88;29.80;;;;;;;;;;4997506;28;20030;-72
2023/01/26 10:56:06;;;;;;;70.63;30.95;;;;;;;;;;4996331;28;20049;-74
2023/01/26 10:58:41;;;;;;;67.50;29.45;;;;;;;;;;4994807;28;20030;-71
2023/01/26 11:01:17;;;;;;;63.08;29.25;;;;;;;;;;4996329;28;20057;-72
2023/01/26 11:03:58;;;;;;;64.00;31.23;;;;;;;;;;4995011;28;20030;-72
2023/01/26 11:06:27;;;;;;;66.30;31.70;;;;;;;;;;4993714;28;20469;-70
2023/01/26 11:08:53;;;;;;;64.43;31.98;;;;;;;;;;4993835;28;20073;-71
2023/01/26 11:11:26;;;;;;;60.72;30.67;;;;;;;;;;4992464;28;20035;-71
2023/01/26 11:14:10;;;;;;;70.47;32.83;;;;;;;;;;4993366;28;20027;-72
2023/01/26 11:16:36;;;;;;;73.88;33.10;;;;;;;;;;4993791;28;20018;-70
2023/01/26 11:19:06;;;;;;;67.97;31.98;;;;;;;;;;4993350;28;20030;-72
2023/01/26 11:21:35;;;;;;;66.47;32.25;;;;;;;;;;4992353;28;20125;-71
2023/01/26 11:24:13;;;;;;;72.05;32.35;;;;;;;;;;4992038;28;20034;-73
2023/01/26 11:26:48;;;;;;;69.25;32.55;;;;;;;;;;4993642;28;20027;-71
2023/01/26 11:29:33;;;;;;;72.57;34.22;;;;;;;;;;4993505;28;20019;-72
2023/01/26 11:32:02;;;;;;;67.50;31.33;;;;;;;;;;4993845;28;20037;-70
2023/01/26 11:34:31;;;;;;;72.55;33.88;;;;;;;;;;4992703;28;20034;-72
2023/01/26 11:37:06;;;;;;;80.65;34.22;;;;;;;;;;4994363;28;20507;-72
2023/01/26 11:39:52;;;;;;;72.78;33.90;;;;;;;;;;4993536;28;20468;-72
2023/01/26 11:42:30;;;;;;;72.95;33.17;;;;;;;;;;4993115;28;20396;-72
2023/01/26 11:45:15;;;;;;;68.50;30.48;;;;;;;;;;4993444;28;20110;-72
2023/01/26 11:47:41;;;;;;;65.22;29.45;;;;;;;;;;4992911;28;20054;-72
2023/01/26 11:50:16;;;;;;;66.60;30.00;;;;;;;;;;4990690;28;20441;-71
2023/01/26 11:52:54;;;;;;;55.95;27.02;;;;;;;;;;4993025;28;20034;-71
2023/01/26 11:55:39;;;;;;;64.75;29.75;;;;;;;;;;4992654;28;20022;-71
2023/01/26 11:58:05;;;;;;;58.15;28.85;;;;;;;;;;4992633;28;20523;-70
2023/01/26 12:00:34;;;;;;;70.10;30.05;;;;;;;;;;4992772;28;20018;-70
2023/01/26 12:03:02;;;;;;;63.90;30.05;;;;;;;;;;4992467;28;20546;-71
2023/01/26 12:05:30;;;;;;;66.25;29.70;;;;;;;;;;4992607;28;20026;-72
2023/01/26 12:07:56;;;;;;;62.03;30.90;;;;;;;;;;4992318;28;20026;-72
2023/01/26 12:10:25;;;;;;;63.28;27.98;;;;;;;;;;4992217;28;20030;-72
2023/01/26 12:12:55;;;;;;;64.22;28.85;;;;;;;;;;4991061;28;20088;-71
2023/01/26 12:15:26;;;;;;;58.53;27.60;;;;;;;;;;4990713;28;20045;-71
2023/01/26 12:17:59;;;;;;;56.35;27.55;;;;;;;;;;4989723;28;20071;-71
2023/01/26 12:20:33;;;;;;;66.35;29.10;;;;;;;;;;4990164;28;20485;-71
2023/01/26 12:23:10;;;;;;;58.60;27.80;;;;;;;;;;5031065;22;20456;-73
2023/01/26 12:25:37;;;;;;;57.85;25.75;;;;;;;;;;4991228;28;20050;-74
2023/01/26 12:28:22;;;;;;;59.60;28.42;;;;;;;;;;4990922;28;20089;-72
2023/01/26 12:30:51;;;;;;;58.30;28.13;;;;;;;;;;4991931;28;20039;-72
2023/01/26 12:33:17;;;;;;;52.75;26.05;;;;;;;;;;4991813;28;20027;-73
2023/01/26 12:35:55;;;;;;;58.67;25.88;;;;;;;;;;4981007;28;20566;-73
2023/01/26 12:38:42;;;;;;;54.80;26.55;;;;;;;;;;4971910;28;20022;-73
2023/01/26 12:41:15;;;;;;;58.03;27.38;;;;;;;;;;4972940;28;20487;-73
2023/01/26 12:43:45;;;;;;;51.95;25.63;;;;;;;;;;4971745;28;20055;-72
2023/01/26 12:46:12;;;;;;;52.75;25.30;;;;;;;;;;4973061;28;20031;-72
2023/01/26 12:48:53;;;;;;;48.47;24.45;;;;;;;;;;4972829;28;20078;-72
2023/01/26 12:51:21;;;;;;;50.75;25.45;;;;;;;;;;4972051;28;20039;-72
2023/01/26 12:53:50;;;;;;;53.83;24.40;;;;;;;;;;4988491;28;20035;-73
2023/01/26 12:56:25;;;;;;;57.40;25.83;;;;;;;;;;4988482;28;20078;-72
2023/01/26 12:58:52;;;;;;;55.70;26.30;;;;;;;;;;4972625;28;20023;-72
2023/01/26 13:01:21;;;;;;;48.63;24.83;;;;;;;;;;4974503;28;20023;-72
2023/01/26 13:03:55;;;;;;;49.92;24.75;;;;;;;;;;4973599;28;20441;-73
2023/01/26 13:06:23;;;;;;;48.90;22.35;;;;;;;;;;4973316;28;20038;-71
2023/01/26 13:08:52;;;;;;;47.75;23.88;;;;;;;;;;4970786;28;20089;-74
2023/01/26 13:11:38;;;;;;;41.13;21.33;;;;;;;;;;4971623;28;20493;-72
2023/01/26 13:14:23;;;;;;;45.17;22.20;;;;;;;;;;4964952;28;20421;-71
2023/01/26 13:16:49;;;;;;;40.58;21.80;;;;;;;;;;4970954;28;20034;-73
2023/01/26 13:19:34;;;;;;;38.60;19.48;;;;;;;;;;4971354;28;20074;-73
2023/01/26 13:22:00;;;;;;;39.97;20.38;;;;;;;;;;4970500;28;20030;-70
2023/01/26 13:24:26;;;;;;;37.30;19.17;;;;;;;;;;4970455;28;20039;-73
2023/01/26 13:26:53;;;;;;;39.08;19.15;;;;;;;;;;4973438;28;20536;-73
2023/01/26 13:29:30;;;;;;;35.88;18.65;;;;;;;;;;4976671;28;20027;-72
2023/01/26 13:32:16;;;;;;;35.47;19.05;;;;;;;;;;4976106;28;20382;-74
2023/01/26 13:34:53;;;;;;;31.90;17.75;;;;;;;;;;4985566;28;20045;-73
2023/01/26 13:37:23;;;;;;;36.45;19.10;;;;;;;;;;4996360;28;20031;-72
2023/01/26 13:39:53;;;;;;;40.97;19.08;;;;;;;;;;4991886;28;20026;-74
2023/01/26 13:42:24;;;;;;;28.17;14.70;;;;;;;;;;4976191;28;20061;-72
2023/01/26 13:44:50;;;;;;;;;;;;;;;;;;4974909;28;20118;-72
2023/01/26 13:47:22;;;;;;;36.75;18.13;;;;;;;;;;4974021;28;19945;-73
2023/01/26 13:49:49;;;;;;;37.63;19.30;;;;;;;;;;4972845;28;20031;-73
2023/01/26 13:52:17;;;;;;;41.45;19.48;;;;;;;;;;4972765;28;20117;-73
2023/01/26 13:54:43;;;;;;;38.38;19.35;;;;;;;;;;4974601;28;20031;-73
2023/01/26 13:57:12;;;;;;;34.80;18.75;;;;;;;;;;4975257;28;20149;-71
2023/01/26 13:59:52;;;;;;;33.30;18.58;;;;;;;;;;4975556;28;20493;-70
2023/01/26 14:02:37;;;;;;;38.30;18.95;;;;;;;;;;4975423;28;20031;-71
2023/01/26 14:05:03;;;;;;;42.25;21.13;;;;;;;;;;4975473;28;20497;-73
2023/01/26 14:07:35;;;;;;;43.05;20.52;;;;;;;;;;4975135;28;20130;-72
2023/01/26 14:10:01;;;;;;;41.42;19.35;;;;;;;;;;4975415;28;20027;-72
2023/01/26 14:12:30;;;;;;;39.97;20.20;;;;;;;;;;4975585;28;20025;-74
2023/01/26 14:15:00;;;;;;;42.25;21.02;;;;;;;;;;4975196;28;20374;-72
2023/01/26 14:17:28;;;;;;;29.27;14.77;;;;;;;;;;4972917;28;20085;-73
2023/01/26 14:19:54;;;;;;;34.33;19.67;;;;;;;;;;4975344;28;20093;-72
2023/01/26 14:22:20;;;;;;;34.90;18.65;;;;;;;;;;4969774;28;20623;-71
2023/01/26 14:24:50;;;;;;;35.00;18.58;;;;;;;;;;4955312;28;20129;-72
2023/01/26 14:27:39;;;;;;;33.95;18.38;;;;;;;;;;4954655;28;20038;-69
2023/01/26 14:30:21;;;;;;;33.92;19.05;;;;;;;;;;4957776;28;20036;-71
2023/01/26 14:32:48;;;;;;;36.08;19.25;;;;;;;;;;4954155;28;20062;-73
2023/01/26 14:35:22;;;;;;;32.88;18.58;;;;;;;;;;4955348;28;20031;-73
2023/01/26 14:37:48;;;;;;;31.42;17.95;;;;;;;;;;4954517;28;20031;-72
2023/01/26 14:40:23;;;;;;;39.58;19.77;;;;;;;;;;4955261;28;20027;-73
2023/01/26 14:42:50;;;;;;;35.92;18.70;;;;;;;;;;4970974;28;20405;-73
2023/01/26 14:45:16;;;;;;;38.25;20.73;;;;;;;;;;4973343;28;20117;-72
2023/01/26 14:47:44;;;;;;;35.72;18.70;;;;;;;;;;4974493;28;20035;-73
2023/01/26 14:50:22;;;;;;;35.67;19.17;;;;;;;;;;4972770;28;20081;-72
2023/01/26 14:52:48;;;;;;;36.53;19.40;;;;;;;;;;4974111;28;20038;-73
2023/01/26 14:55:22;;;;;;;34.97;18.85;;;;;;;;;;4981826;28;20018;-72
2023/01/26 14:57:48;;;;;;;31.92;18.73;;;;;;;;;;4982845;28;20490;-73
2023/01/26 15:00:26;;;;;;;35.92;19.45;;;;;;;;;;4959136;28;20041;-73
2023/01/26 15:02:54;;;;;;;32.70;18.00;;;;;;;;;;4974498;28;20102;-70
2023/01/26 15:05:22;;;;;;;34.88;18.27;;;;;;;;;;4974498;28;20027;-73
2023/01/26 15:07:53;;;;;;;32.70;17.25;;;;;;;;;;4974179;28;20055;-73
2023/01/26 15:10:40;;;;;;;31.42;17.58;;;;;;;;;;4974197;28;20113;-73
2023/01/26 15:13:06;;;;;;;36.80;18.13;;;;;;;;;;4973677;28;20438;-72